Llangoed, United Kingdom
Current Conditions -  °F | °C
As of 2:50 AM on Saturday 29 Nov 2014 (Local Time) from EGOV Reporting Station
Haze Haze  
Wind Chill: 41°   Ceiling: Unl
Heat Index: 45°   Visibility: 3mi
Dew Point: 43°   Wind: 7mph
Humidity: 93%   Direction: 70°ENE
Pressure: 29.74"   Gusts: NA
Location:  53.3°N, 4.09°W
Report Text: EGOV 290250Z AUTO 07006KT 5000 HZ NCD 07/06 Q1007
Loading
Personal Weather Stations






























Interactive Weather Map New forecast layout! Learn more

10-Day Weather Forecast

Advertisements
Track Severe Weather on mobile